Time;durP1;ratioP1;P1;durP2;ratioP2;P2;SDS_P1;SDS_P2;PMS_P1;PMS_P2;Temp;Humidity;BMP_temperature;BMP_pressure;BME280_temperature;BME280_humidity;BME280_pressure;Samples;Min_cycle;Max_cycle;Signal;HPM_P1;HPM_P2
2020/12/21 00:04:42;;;;;;;7.90;6.97;;;;;;;;;;4638203;28;20098;-65
2020/12/21 00:07:08;;;;;;;7.07;6.18;;;;;;;;;;4204527;34;20109;-65
2020/12/21 00:09:34;;;;;;;8.73;6.60;;;;;;;;;;4199688;34;20138;-66
2020/12/21 00:12:00;;;;;;;8.68;6.32;;;;;;;;;;4178616;34;20141;-66
2020/12/21 00:14:25;;;;;;;8.48;6.78;;;;;;;;;;4191190;34;20121;-63
2020/12/21 00:16:52;;;;;;;8.05;6.45;;;;;;;;;;4190003;34;20110;-62
2020/12/21 00:19:19;;;;;;;8.48;6.68;;;;;;;;;;4190993;34;20202;-63
2020/12/21 00:21:46;;;;;;;7.75;6.40;;;;;;;;;;4190973;34;20530;-63
2020/12/21 00:24:12;;;;;;;9.15;6.50;;;;;;;;;;4191070;34;20206;-63
2020/12/21 00:26:38;;;;;;;8.85;6.68;;;;;;;;;;4191244;34;20122;-63
2020/12/21 00:29:04;;;;;;;7.03;6.03;;;;;;;;;;4191011;34;20134;-62
2020/12/21 00:31:31;;;;;;;7.07;5.45;;;;;;;;;;4178560;34;20193;-64
2020/12/21 00:34:02;;;;;;;7.80;6.32;;;;;;;;;;4190884;34;20522;-65
2020/12/21 00:36:28;;;;;;;7.60;6.05;;;;;;;;;;4191048;34;20190;-63
2020/12/21 00:38:55;;;;;;;8.10;6.28;;;;;;;;;;4190795;34;20488;-65
2020/12/21 00:41:22;;;;;;;6.60;5.90;;;;;;;;;;4191320;34;20118;-63
2020/12/21 00:43:48;;;;;;;7.65;5.97;;;;;;;;;;4189714;34;20544;-64
2020/12/21 00:46:24;;;;;;;7.35;5.87;;;;;;;;;;4190865;34;20205;-63
2020/12/21 00:48:50;;;;;;;;;;;;;;;;;;4189838;34;20126;-65
2020/12/21 00:51:16;;;;;;;6.93;5.87;;;;;;;;;;4189512;34;20430;-63
2020/12/21 00:53:45;;;;;;;10.00;6.85;;;;;;;;;;4190870;34;20157;-63
2020/12/21 00:56:11;;;;;;;6.03;5.15;;;;;;;;;;4189381;34;20109;-63
2020/12/21 00:58:44;;;;;;;7.00;5.47;;;;;;;;;;4190927;34;20132;-63
2020/12/21 01:01:15;;;;;;;6.75;5.85;;;;;;;;;;4190894;34;20781;-62
2020/12/21 01:03:41;;;;;;;6.32;5.60;;;;;;;;;;4189162;34;20157;-64
2020/12/21 01:06:07;;;;;;;7.20;5.85;;;;;;;;;;4196753;34;20122;-64
2020/12/21 01:08:33;;;;;;;6.70;6.00;;;;;;;;;;4191810;34;20220;-67
2020/12/21 01:10:59;;;;;;;8.15;5.68;;;;;;;;;;4204346;34;20140;-64
2020/12/21 01:13:25;;;;;;;6.22;5.55;;;;;;;;;;4180232;34;20526;-63
2020/12/21 01:15:51;;;;;;;8.13;5.65;;;;;;;;;;4192749;34;20097;-62
2020/12/21 01:18:17;;;;;;;8.77;6.70;;;;;;;;;;4193645;34;20197;-63
2020/12/21 01:20:43;;;;;;;6.65;5.95;;;;;;;;;;4206469;34;20182;-62
2020/12/21 01:23:09;;;;;;;8.50;6.10;;;;;;;;;;4206483;34;20111;-63
2020/12/21 01:25:35;;;;;;;7.90;6.30;;;;;;;;;;4206196;34;20125;-64
2020/12/21 01:28:01;;;;;;;6.30;5.43;;;;;;;;;;4193765;34;20152;-63
2020/12/21 01:30:27;;;;;;;8.52;5.68;;;;;;;;;;4193294;34;20133;-63
2020/12/21 01:33:05;;;;;;;6.62;5.90;;;;;;;;;;4206545;34;20540;-66
2020/12/21 01:36:43;;;;;;;;;;;;;;;;;;;;;
2020/12/21 01:39:30;;;;;;;7.85;6.10;;;;;;;;;;4159525;34;20210;-64
2020/12/21 01:42:20;;;;;;;6.20;5.60;;;;;;;;;;4124023;34;20573;-63
2020/12/21 01:45:14;;;;;;;7.50;6.10;;;;;;;;;;4156018;34;20119;-64
2020/12/21 01:48:09;;;;;;;6.60;5.72;;;;;;;;;;4163164;34;20115;-72
2020/12/21 01:50:49;;;;;;;7.53;5.93;;;;;;;;;;4162870;34;20095;-75
2020/12/21 01:53:15;;;;;;;6.20;5.50;;;;;;;;;;4151544;34;20137;-74
2020/12/21 01:55:42;;;;;;;6.93;5.93;;;;;;;;;;4151416;34;20125;-74
2020/12/21 01:58:08;;;;;;;6.53;5.72;;;;;;;;;;4162609;34;20216;-72
2020/12/21 02:00:34;;;;;;;7.32;6.50;;;;;;;;;;4151359;34;20134;-74
2020/12/21 02:03:00;;;;;;;6.40;5.80;;;;;;;;;;4162492;34;20182;-73
2020/12/21 02:05:26;;;;;;;9.60;6.82;;;;;;;;;;4151155;34;20117;-74
2020/12/21 02:07:52;;;;;;;7.45;6.65;;;;;;;;;;4176224;34;20091;-73
2020/12/21 02:10:19;;;;;;;7.32;6.37;;;;;;;;;;4190653;34;20122;-73
2020/12/21 02:12:45;;;;;;;7.37;6.60;;;;;;;;;;4179381;34;20530;-73
2020/12/21 02:15:11;;;;;;;8.90;6.18;;;;;;;;;;4192108;34;20216;-71
2020/12/21 02:17:37;;;;;;;7.40;6.35;;;;;;;;;;4192153;34;20534;-73
2020/12/21 02:20:03;;;;;;;7.78;6.28;;;;;;;;;;4192326;34;20117;-72
2020/12/21 02:22:29;;;;;;;7.15;6.18;;;;;;;;;;4190748;34;20117;-73
2020/12/21 02:24:54;;;;;;;8.45;6.18;;;;;;;;;;4191984;34;20120;-74
2020/12/21 02:27:20;;;;;;;7.22;5.90;;;;;;;;;;4191665;34;20491;-73
2020/12/21 02:29:47;;;;;;;6.70;6.00;;;;;;;;;;4190554;34;20134;-72
2020/12/21 02:32:13;;;;;;;6.72;6.10;;;;;;;;;;4192070;34;20273;-74
2020/12/21 02:34:39;;;;;;;9.50;6.65;;;;;;;;;;4191973;34;20107;-72
2020/12/21 02:37:06;;;;;;;8.65;6.40;;;;;;;;;;4192047;34;20312;-71
2020/12/21 02:39:31;;;;;;;7.85;6.18;;;;;;;;;;4192187;34;20099;-73
2020/12/21 02:41:57;;;;;;;8.90;5.78;;;;;;;;;;4191931;34;20114;-73
2020/12/21 02:44:24;;;;;;;7.97;6.12;;;;;;;;;;4190450;34;20126;-72
2020/12/21 02:46:50;;;;;;;7.47;5.90;;;;;;;;;;4192036;34;20091;-73
2020/12/21 02:49:15;;;;;;;7.72;6.18;;;;;;;;;;4192121;34;20152;-71
2020/12/21 02:51:41;;;;;;;6.80;5.93;;;;;;;;;;4192065;34;20155;-72
2020/12/21 02:54:07;;;;;;;9.00;6.65;;;;;;;;;;4191855;34;20148;-72
2020/12/21 02:56:33;;;;;;;8.68;6.82;;;;;;;;;;4192175;34;20114;-74
2020/12/21 02:58:59;;;;;;;7.47;6.47;;;;;;;;;;4192082;34;20126;-63
2020/12/21 03:01:25;;;;;;;7.40;6.55;;;;;;;;;;4191763;34;20101;-69
2020/12/21 03:03:51;;;;;;;6.85;6.15;;;;;;;;;;4191617;34;20125;-64
2020/12/21 03:06:17;;;;;;;8.82;6.22;;;;;;;;;;4191589;34;20469;-68
2020/12/21 03:08:43;;;;;;;7.32;6.35;;;;;;;;;;4191658;34;20233;-66
2020/12/21 03:11:09;;;;;;;7.55;6.65;;;;;;;;;;4190254;34;20176;-69
2020/12/21 03:13:36;;;;;;;10.27;6.25;;;;;;;;;;4190327;34;20129;-64
2020/12/21 03:16:02;;;;;;;7.20;6.50;;;;;;;;;;4190053;34;20363;-73
2020/12/21 03:18:28;;;;;;;7.90;6.30;;;;;;;;;;4189028;34;20565;-72
2020/12/21 03:20:54;;;;;;;9.63;6.22;;;;;;;;;;4188402;34;20134;-73
2020/12/21 03:23:20;;;;;;;8.65;6.90;;;;;;;;;;4189930;34;20197;-71
2020/12/21 03:25:46;;;;;;;7.75;6.65;;;;;;;;;;4189819;34;20130;-71
2020/12/21 03:28:11;;;;;;;7.50;6.20;;;;;;;;;;4190152;34;20284;-67
2020/12/21 03:30:37;;;;;;;7.55;6.75;;;;;;;;;;4189949;34;20126;-69
2020/12/21 03:33:03;;;;;;;9.27;6.47;;;;;;;;;;4190137;34;20227;-70
2020/12/21 03:35:29;;;;;;;7.90;7.10;;;;;;;;;;4190727;34;20094;-69
2020/12/21 03:37:55;;;;;;;7.53;6.72;;;;;;;;;;4191031;34;20097;-69
2020/12/21 03:40:21;;;;;;;8.45;7.22;;;;;;;;;;4190933;34;20102;-72
2020/12/21 03:42:47;;;;;;;9.55;7.60;;;;;;;;;;4191664;34;20141;-74
2020/12/21 03:45:13;;;;;;;8.32;7.28;;;;;;;;;;4189921;34;20137;-73
2020/12/21 03:47:38;;;;;;;11.45;7.80;;;;;;;;;;4190049;34;20142;-73
2020/12/21 03:50:05;;;;;;;7.82;7.03;;;;;;;;;;4191258;34;20315;-72
2020/12/21 03:52:31;;;;;;;7.35;6.60;;;;;;;;;;4191621;34;20121;-70
2020/12/21 03:54:57;;;;;;;8.90;7.62;;;;;;;;;;4191486;34;20217;-72
2020/12/21 03:57:23;;;;;;;8.40;7.50;;;;;;;;;;4191420;34;20126;-71
2020/12/21 03:59:49;;;;;;;7.93;7.07;;;;;;;;;;4191159;34;20122;-71
2020/12/21 04:02:15;;;;;;;9.05;7.57;;;;;;;;;;4201389;34;20443;-70
2020/12/21 04:04:41;;;;;;;10.00;7.47;;;;;;;;;;4195917;34;20094;-69
2020/12/21 04:07:07;;;;;;;9.80;7.82;;;;;;;;;;4192368;34;20109;-69
2020/12/21 04:09:33;;;;;;;8.35;6.62;;;;;;;;;;4204986;34;20097;-67
2020/12/21 04:11:59;;;;;;;7.07;6.32;;;;;;;;;;4205013;34;20453;-70
2020/12/21 04:14:25;;;;;;;7.80;6.97;;;;;;;;;;4192073;34;20129;-77
2020/12/21 04:16:51;;;;;;;7.70;6.90;;;;;;;;;;4203840;34;20149;-69
2020/12/21 04:19:17;;;;;;;8.40;7.37;;;;;;;;;;4204835;34;20525;-68
2020/12/21 04:21:43;;;;;;;7.57;6.18;;;;;;;;;;4205131;34;20117;-68
2020/12/21 04:24:08;;;;;;;18.65;7.12;;;;;;;;;;4204859;34;20129;-65
2020/12/21 04:26:34;;;;;;;7.10;6.40;;;;;;;;;;4204733;34;20106;-66
2020/12/21 04:29:00;;;;;;;7.93;6.55;;;;;;;;;;4204852;34;20511;-68
2020/12/21 04:31:26;;;;;;;8.32;6.85;;;;;;;;;;4204835;34;20102;-67
2020/12/21 04:33:52;;;;;;;8.40;7.20;;;;;;;;;;4204750;34;20137;-67
2020/12/21 04:36:18;;;;;;;9.80;7.50;;;;;;;;;;4204947;34;20122;-68
2020/12/21 04:38:44;;;;;;;7.60;6.72;;;;;;;;;;4191964;34;20241;-68
2020/12/21 04:41:10;;;;;;;7.87;6.90;;;;;;;;;;4205123;34;20521;-66
2020/12/21 04:43:36;;;;;;;9.77;7.82;;;;;;;;;;4204706;34;20553;-68
2020/12/21 04:46:05;;;;;;;10.70;7.20;;;;;;;;;;4204268;34;20206;-64
2020/12/21 04:48:31;;;;;;;6.50;5.90;;;;;;;;;;4204754;34;20128;-65
2020/12/21 04:50:57;;;;;;;7.55;6.75;;;;;;;;;;4190986;34;20109;-67
2020/12/21 04:53:24;;;;;;;8.40;7.30;;;;;;;;;;4204483;34;20118;-66
2020/12/21 04:55:53;;;;;;;8.02;6.85;;;;;;;;;;4204263;34;20215;-66
2020/12/21 04:58:25;;;;;;;8.00;6.70;;;;;;;;;;4204711;34;20126;-66
2020/12/21 05:00:55;;;;;;;8.43;7.45;;;;;;;;;;4204393;34;20156;-66
2020/12/21 05:03:21;;;;;;;8.32;7.47;;;;;;;;;;4204253;34;20121;-66
2020/12/21 05:05:47;;;;;;;7.62;6.72;;;;;;;;;;4203986;34;20169;-67
2020/12/21 05:08:21;;;;;;;8.45;7.05;;;;;;;;;;4204538;34;20117;-66
2020/12/21 05:11:03;;;;;;;7.82;6.35;;;;;;;;;;4204109;34;20521;-66
2020/12/21 05:13:31;;;;;;;8.02;6.82;;;;;;;;;;4191747;34;20099;-67
2020/12/21 05:15:57;;;;;;;7.93;6.72;;;;;;;;;;4203965;34;20098;-67
2020/12/21 05:18:28;;;;;;;7.18;6.47;;;;;;;;;;4204181;34;20273;-67
2020/12/21 05:21:14;;;;;;;7.68;6.65;;;;;;;;;;4203995;34;20249;-66
2020/12/21 05:23:55;;;;;;;7.00;6.37;;;;;;;;;;4204122;34;20222;-67
2020/12/21 05:26:32;;;;;;;8.13;6.65;;;;;;;;;;4192872;34;20136;-66
2020/12/21 05:29:01;;;;;;;8.77;7.15;;;;;;;;;;4203967;34;20101;-67
2020/12/21 05:31:28;;;;;;;9.35;7.28;;;;;;;;;;4204011;34;20183;-66
2020/12/21 05:33:54;;;;;;;7.47;6.28;;;;;;;;;;4203922;34;20627;-66
2020/12/21 05:36:22;;;;;;;8.35;7.37;;;;;;;;;;4203985;34;20219;-68
2020/12/21 05:39:04;;;;;;;8.15;7.35;;;;;;;;;;4191397;34;20094;-67
2020/12/21 05:41:30;;;;;;;8.00;7.12;;;;;;;;;;4191727;34;20120;-67
2020/12/21 05:44:04;;;;;;;8.93;7.35;;;;;;;;;;4191161;34;20136;-67
2020/12/21 05:46:34;;;;;;;8.15;7.22;;;;;;;;;;4191729;34;20122;-68
2020/12/21 05:49:00;;;;;;;8.55;7.57;;;;;;;;;;4203857;34;20198;-68
2020/12/21 05:51:26;;;;;;;9.82;6.80;;;;;;;;;;4203778;34;20105;-68
2020/12/21 05:53:55;;;;;;;10.63;7.57;;;;;;;;;;4203903;34;20136;-67
2020/12/21 05:56:22;;;;;;;8.60;7.25;;;;;;;;;;4203744;34;20106;-67
2020/12/21 05:58:50;;;;;;;9.52;7.75;;;;;;;;;;4203882;34;20107;-68
2020/12/21 06:01:16;;;;;;;10.52;8.25;;;;;;;;;;4203664;34;20125;-69
2020/12/21 06:03:43;;;;;;;10.13;7.70;;;;;;;;;;4205731;34;20085;-66
2020/12/21 06:06:19;;;;;;;8.82;7.28;;;;;;;;;;4204182;34;20629;-65
2020/12/21 06:08:52;;;;;;;11.07;7.97;;;;;;;;;;4193004;34;20120;-66
2020/12/21 06:11:22;;;;;;;9.25;7.62;;;;;;;;;;4205868;34;20121;-67
2020/12/21 06:13:59;;;;;;;10.30;8.02;;;;;;;;;;4205787;34;20109;-66
2020/12/21 06:16:29;;;;;;;9.13;7.57;;;;;;;;;;4193235;34;20110;-66
2020/12/21 06:19:24;;;;;;;9.63;7.68;;;;;;;;;;4205948;34;20108;-68
2020/12/21 06:21:53;;;;;;;10.98;7.45;;;;;;;;;;4205679;34;20106;-66
2020/12/21 06:24:20;;;;;;;9.00;7.68;;;;;;;;;;4205696;34;20529;-65
2020/12/21 06:26:46;;;;;;;8.70;7.32;;;;;;;;;;4205638;34;20112;-66
2020/12/21 06:29:25;;;;;;;10.38;8.25;;;;;;;;;;4192895;34;20094;-67
2020/12/21 06:31:54;;;;;;;9.52;8.38;;;;;;;;;;4205630;34;20137;-67
2020/12/21 06:34:29;;;;;;;9.40;7.90;;;;;;;;;;4205941;34;20497;-67
2020/12/21 06:37:12;;;;;;;9.70;7.73;;;;;;;;;;4205713;34;20221;-67
2020/12/21 06:39:38;;;;;;;10.45;8.00;;;;;;;;;;4192602;34;20116;-67
2020/12/21 06:42:09;;;;;;;9.50;7.93;;;;;;;;;;4192881;34;20196;-70
2020/12/21 06:44:39;;;;;;;9.55;8.38;;;;;;;;;;4192682;34;20198;-70
2020/12/21 06:47:11;;;;;;;8.90;7.93;;;;;;;;;;4205617;34;20273;-70
2020/12/21 06:49:37;;;;;;;11.15;8.20;;;;;;;;;;4192735;34;20086;-68
2020/12/21 06:52:03;;;;;;;8.65;7.60;;;;;;;;;;4205767;34;20097;-69
2020/12/21 06:54:29;;;;;;;9.32;7.68;;;;;;;;;;4192579;34;20125;-71
2020/12/21 06:56:55;;;;;;;11.05;8.35;;;;;;;;;;4205607;34;20517;-70
2020/12/21 06:59:25;;;;;;;10.57;8.07;;;;;;;;;;4205508;34;20193;-71
2020/12/21 07:01:52;;;;;;;9.68;7.93;;;;;;;;;;4205304;34;20106;-71
2020/12/21 07:04:25;;;;;;;10.68;8.60;;;;;;;;;;4192288;34;20455;-72
2020/12/21 07:06:51;;;;;;;9.98;8.15;;;;;;;;;;4192396;34;20136;-72
2020/12/21 07:09:25;;;;;;;10.00;7.78;;;;;;;;;;4192449;34;20152;-73
2020/12/21 07:11:59;;;;;;;10.63;7.82;;;;;;;;;;4205336;34;20602;-74
2020/12/21 07:14:26;;;;;;;10.13;7.53;;;;;;;;;;4192274;34;20202;-72
2020/12/21 07:17:08;;;;;;;10.25;7.30;;;;;;;;;;4192388;34;20102;-72
2020/12/21 07:19:36;;;;;;;11.15;9.15;;;;;;;;;;4205153;34;20137;-71
2020/12/21 07:22:09;;;;;;;9.48;8.48;;;;;;;;;;4205444;34;20212;-71
2020/12/21 07:24:35;;;;;;;9.05;7.60;;;;;;;;;;4192306;34;20217;-72
2020/12/21 07:27:01;;;;;;;8.88;6.90;;;;;;;;;;4205321;34;20082;-71
2020/12/21 07:29:38;;;;;;;8.93;7.53;;;;;;;;;;4205144;34;20149;-72
2020/12/21 07:32:04;;;;;;;10.25;7.50;;;;;;;;;;4192556;34;20518;-69
2020/12/21 07:34:30;;;;;;;10.68;8.05;;;;;;;;;;4205236;34;20278;-70
2020/12/21 07:36:56;;;;;;;10.18;7.62;;;;;;;;;;4205431;34;20509;-72
2020/12/21 07:39:22;;;;;;;9.60;7.72;;;;;;;;;;4192505;34;20096;-70
2020/12/21 07:41:51;;;;;;;7.75;6.87;;;;;;;;;;4180971;34;20189;-69
2020/12/21 07:44:29;;;;;;;8.13;6.80;;;;;;;;;;4192557;34;20632;-67
2020/12/21 07:47:00;;;;;;;10.15;7.55;;;;;;;;;;4192250;34;20144;-67
2020/12/21 07:49:26;;;;;;;9.52;7.87;;;;;;;;;;4205110;34;20135;-67
2020/12/21 07:51:57;;;;;;;8.63;7.70;;;;;;;;;;4192240;34;20638;-68
2020/12/21 07:54:23;;;;;;;10.32;7.85;;;;;;;;;;4192210;34;20110;-68
2020/12/21 07:56:59;;;;;;;7.78;6.75;;;;;;;;;;4192531;34;20205;-69
2020/12/21 07:59:25;;;;;;;7.93;6.57;;;;;;;;;;4205010;34;20125;-70
2020/12/21 08:01:56;;;;;;;9.55;7.47;;;;;;;;;;4192270;34;20196;-68
2020/12/21 08:04:22;;;;;;;10.88;7.68;;;;;;;;;;4192180;34;20090;-62
2020/12/21 08:06:48;;;;;;;9.25;7.22;;;;;;;;;;4204941;34;20105;-70
2020/12/21 08:09:14;;;;;;;8.90;7.75;;;;;;;;;;4205283;34;20117;-72
2020/12/21 08:11:40;;;;;;;10.73;7.47;;;;;;;;;;4205100;34;20117;-71
2020/12/21 08:14:14;;;;;;;8.98;7.03;;;;;;;;;;4204980;34;20530;-73
2020/12/21 08:16:40;;;;;;;9.97;7.87;;;;;;;;;;4192624;34;20214;-70
2020/12/21 08:19:10;;;;;;;9.10;7.30;;;;;;;;;;4192047;34;20118;-67
2020/12/21 08:21:36;;;;;;;10.38;7.95;;;;;;;;;;4205197;34;20118;-70
2020/12/21 08:24:04;;;;;;;9.63;7.53;;;;;;;;;;4204855;34;20752;-63
2020/12/21 08:26:34;;;;;;;9.57;8.32;;;;;;;;;;4204612;34;20116;-69
2020/12/21 08:29:00;;;;;;;10.13;8.13;;;;;;;;;;4192376;34;20090;-68
2020/12/21 08:31:26;;;;;;;10.45;8.30;;;;;;;;;;4204808;34;20143;-67
2020/12/21 08:33:59;;;;;;;9.68;7.75;;;;;;;;;;4204664;34;20105;-70
2020/12/21 08:36:29;;;;;;;10.25;7.65;;;;;;;;;;4204683;34;20090;-67
2020/12/21 08:39:13;;;;;;;9.10;7.43;;;;;;;;;;4191990;34;20121;-68
2020/12/21 08:41:43;;;;;;;10.13;8.55;;;;;;;;;;4193194;34;20124;-69
2020/12/21 08:44:29;;;;;;;10.48;8.00;;;;;;;;;;4204675;34;20559;-70
2020/12/21 08:47:00;;;;;;;9.55;7.97;;;;;;;;;;4204980;34;20166;-63
2020/12/21 08:49:27;;;;;;;9.55;7.90;;;;;;;;;;4204540;34;20113;-69
2020/12/21 08:51:58;;;;;;;10.77;7.65;;;;;;;;;;4191818;34;20447;-71
2020/12/21 08:54:24;;;;;;;9.98;8.00;;;;;;;;;;4204775;34;20210;-71
2020/12/21 08:56:53;;;;;;;8.73;7.35;;;;;;;;;;4204527;34;20117;-71
2020/12/21 08:59:19;;;;;;;9.50;7.10;;;;;;;;;;4191953;34;20098;-71
2020/12/21 09:01:45;;;;;;;10.48;6.95;;;;;;;;;;4204423;34;20125;-71
2020/12/21 09:04:11;;;;;;;10.68;7.90;;;;;;;;;;4191438;34;20559;-74
2020/12/21 09:06:37;;;;;;;10.65;7.32;;;;;;;;;;4204276;34;20174;-66
2020/12/21 09:09:04;;;;;;;10.40;8.27;;;;;;;;;;4191598;34;20197;-72
2020/12/21 09:11:30;;;;;;;9.50;7.35;;;;;;;;;;4191479;34;20486;-72
2020/12/21 09:13:56;;;;;;;10.40;7.68;;;;;;;;;;4204580;34;20229;-72
2020/12/21 09:16:27;;;;;;;9.40;7.28;;;;;;;;;;4204435;34;20129;-73
2020/12/21 09:18:56;;;;;;;9.60;6.97;;;;;;;;;;4180722;34;20559;-71
2020/12/21 09:21:26;;;;;;;9.40;7.12;;;;;;;;;;4204277;34;20101;-71
2020/12/21 09:23:53;;;;;;;10.63;7.80;;;;;;;;;;4204506;34;20110;-70
2020/12/21 09:26:19;;;;;;;9.70;7.62;;;;;;;;;;4204218;34;20101;-73
2020/12/21 09:28:45;;;;;;;10.07;7.62;;;;;;;;;;4191385;34;20106;-73
2020/12/21 09:31:12;;;;;;;9.13;7.00;;;;;;;;;;4204630;34;20141;-72
2020/12/21 09:33:38;;;;;;;11.35;8.18;;;;;;;;;;4204394;34;20225;-68
2020/12/21 09:36:08;;;;;;;10.27;7.40;;;;;;;;;;4204506;34;20132;-70
2020/12/21 09:38:34;;;;;;;11.15;7.97;;;;;;;;;;4206145;34;20106;-70
2020/12/21 09:41:02;;;;;;;11.98;9.07;;;;;;;;;;4193356;34;20182;-68
2020/12/21 09:43:36;;;;;;;11.27;8.88;;;;;;;;;;4178669;34;20098;-70
2020/12/21 09:46:07;;;;;;;11.20;8.02;;;;;;;;;;4191502;34;20209;-70
2020/12/21 09:48:33;;;;;;;8.05;6.75;;;;;;;;;;4192362;34;20125;-69
2020/12/21 09:50:59;;;;;;;9.20;7.82;;;;;;;;;;4191674;34;20103;-70
2020/12/21 09:53:25;;;;;;;9.13;7.53;;;;;;;;;;4191043;34;20466;-70
2020/12/21 09:55:51;;;;;;;9.88;7.70;;;;;;;;;;4179054;34;20145;-66
2020/12/21 09:58:17;;;;;;;9.10;8.00;;;;;;;;;;4192066;34;20590;-65
2020/12/21 10:00:43;;;;;;;9.93;7.40;;;;;;;;;;4191608;34;20157;-65
2020/12/21 10:03:09;;;;;;;9.23;7.70;;;;;;;;;;4191595;34;20622;-68
2020/12/21 10:05:35;;;;;;;9.50;7.55;;;;;;;;;;4179235;34;20125;-69
2020/12/21 10:08:01;;;;;;;10.40;7.35;;;;;;;;;;4205748;34;20201;-69
2020/12/21 10:10:27;;;;;;;10.15;7.45;;;;;;;;;;4205527;34;20124;-70
2020/12/21 10:12:53;;;;;;;9.00;7.90;;;;;;;;;;4205388;34;20530;-64
2020/12/21 10:15:19;;;;;;;9.52;7.78;;;;;;;;;;4205302;34;20553;-70
2020/12/21 10:17:45;;;;;;;14.40;8.38;;;;;;;;;;4205359;34;20124;-68
2020/12/21 10:20:11;;;;;;;11.10;8.23;;;;;;;;;;4205387;34;20137;-66
2020/12/21 10:22:37;;;;;;;11.15;8.10;;;;;;;;;;4192883;34;20128;-73
2020/12/21 10:25:03;;;;;;;9.65;7.60;;;;;;;;;;4205454;34;20121;-74
2020/12/21 10:27:30;;;;;;;9.65;8.20;;;;;;;;;;4205749;34;20121;-70
2020/12/21 10:29:56;;;;;;;9.00;7.95;;;;;;;;;;4205572;34;20118;-71
2020/12/21 10:32:26;;;;;;;8.73;7.82;;;;;;;;;;4204866;34;20156;-70
2020/12/21 10:35:10;;;;;;;9.13;8.18;;;;;;;;;;4189554;34;20098;-74
2020/12/21 10:37:40;;;;;;;11.60;8.50;;;;;;;;;;4189948;34;20117;-71
2020/12/21 10:40:06;;;;;;;11.15;8.00;;;;;;;;;;4179087;34;20225;-70
2020/12/21 10:42:32;;;;;;;11.43;8.60;;;;;;;;;;4191731;34;20476;-71
2020/12/21 10:44:59;;;;;;;11.02;8.38;;;;;;;;;;4191435;34;20134;-66
2020/12/21 10:47:26;;;;;;;10.80;8.57;;;;;;;;;;4191476;34;20116;-68
2020/12/21 10:49:52;;;;;;;9.52;8.57;;;;;;;;;;4191769;34;20148;-67
2020/12/21 10:52:18;;;;;;;11.15;8.70;;;;;;;;;;4191891;34;20102;-70
2020/12/21 10:54:44;;;;;;;11.12;8.55;;;;;;;;;;4191616;34;20629;-68
2020/12/21 10:57:10;;;;;;;9.68;8.30;;;;;;;;;;4190187;34;20118;-64
2020/12/21 10:59:36;;;;;;;9.07;8.05;;;;;;;;;;4191407;34;20517;-64
2020/12/21 11:02:02;;;;;;;11.27;9.27;;;;;;;;;;4191584;34;20526;-62
2020/12/21 11:04:28;;;;;;;12.82;8.43;;;;;;;;;;4191515;34;20105;-67
2020/12/21 11:06:55;;;;;;;10.60;7.95;;;;;;;;;;4188509;34;20121;-67
2020/12/21 11:09:21;;;;;;;9.43;7.95;;;;;;;;;;4190992;34;20097;-64
2020/12/21 11:11:47;;;;;;;11.93;8.30;;;;;;;;;;4190869;34;20110;-64
2020/12/21 11:14:14;;;;;;;10.82;7.97;;;;;;;;;;4191376;34;20102;-68
2020/12/21 11:16:40;;;;;;;11.12;8.10;;;;;;;;;;4189674;34;20118;-66
2020/12/21 11:19:07;;;;;;;9.02;7.47;;;;;;;;;;4189879;34;20132;-65
2020/12/21 11:21:36;;;;;;;8.30;7.07;;;;;;;;;;4191016;34;20121;-67
2020/12/21 11:24:03;;;;;;;11.45;8.30;;;;;;;;;;4191265;34;20161;-66
2020/12/21 11:26:29;;;;;;;14.30;8.48;;;;;;;;;;4190982;34;20130;-67
2020/12/21 11:28:54;;;;;;;10.32;8.30;;;;;;;;;;4191408;34;20501;-67
2020/12/21 11:31:21;;;;;;;11.10;8.57;;;;;;;;;;4190770;34;20113;-69
2020/12/21 11:33:47;;;;;;;13.32;8.60;;;;;;;;;;4191163;34;20486;-67
2020/12/21 11:36:13;;;;;;;11.05;8.63;;;;;;;;;;4192407;34;20174;-65
2020/12/21 11:38:39;;;;;;;11.12;8.57;;;;;;;;;;4190506;34;20129;-66
2020/12/21 11:41:05;;;;;;;13.60;8.95;;;;;;;;;;4187580;34;20118;-66
2020/12/21 11:43:31;;;;;;;11.55;8.35;;;;;;;;;;4191078;34;20206;-65
2020/12/21 11:46:01;;;;;;;9.20;7.87;;;;;;;;;;4177793;34;20106;-66
2020/12/21 11:48:30;;;;;;;11.82;7.93;;;;;;;;;;4191213;34;20133;-65
2020/12/21 11:50:56;;;;;;;9.32;8.10;;;;;;;;;;4190939;34;20110;-65
2020/12/21 11:53:22;;;;;;;9.85;8.73;;;;;;;;;;4190915;34;20173;-67
2020/12/21 11:55:54;;;;;;;9.40;8.40;;;;;;;;;;4190247;34;20690;-67
2020/12/21 11:58:20;;;;;;;10.13;8.32;;;;;;;;;;4189878;34;20102;-66
2020/12/21 12:00:46;;;;;;;9.82;8.57;;;;;;;;;;4189747;34;20114;-66
2020/12/21 12:03:12;;;;;;;10.60;8.35;;;;;;;;;;4190721;34;20635;-65
2020/12/21 12:05:37;;;;;;;10.23;8.48;;;;;;;;;;4182961;34;20209;-65
2020/12/21 12:08:03;;;;;;;11.85;8.35;;;;;;;;;;4191074;34;20118;-66
2020/12/21 12:10:29;;;;;;;8.85;7.60;;;;;;;;;;4190951;34;20629;-70
2020/12/21 12:12:55;;;;;;;9.45;8.02;;;;;;;;;;4190851;34;20199;-65
2020/12/21 12:15:21;;;;;;;11.45;9.48;;;;;;;;;;4190128;34;20113;-69
2020/12/21 12:17:47;;;;;;;10.68;9.52;;;;;;;;;;4190908;34;20113;-69
2020/12/21 12:20:16;;;;;;;10.55;8.98;;;;;;;;;;4190909;34;20594;-70
2020/12/21 12:22:42;;;;;;;14.38;9.93;;;;;;;;;;4190966;34;20194;-71
2020/12/21 12:25:08;;;;;;;13.90;10.15;;;;;;;;;;4178234;34;20191;-68
2020/12/21 12:27:34;;;;;;;11.32;9.35;;;;;;;;;;4190998;34;20190;-68
2020/12/21 12:30:00;;;;;;;10.63;8.70;;;;;;;;;;4190710;34;20102;-68
2020/12/21 12:32:26;;;;;;;11.65;9.07;;;;;;;;;;4190828;34;20237;-66
2020/12/21 12:34:52;;;;;;;11.98;9.35;;;;;;;;;;4190736;34;20177;-68
2020/12/21 12:37:18;;;;;;;13.43;9.18;;;;;;;;;;4189677;34;20129;-68
2020/12/21 12:39:44;;;;;;;13.13;9.23;;;;;;;;;;4190690;34;20121;-69
2020/12/21 12:42:10;;;;;;;11.80;8.73;;;;;;;;;;4190907;34;20110;-69
2020/12/21 12:44:36;;;;;;;11.30;8.98;;;;;;;;;;4178058;34;20474;-69
2020/12/21 12:47:06;;;;;;;12.68;9.43;;;;;;;;;;4190659;34;20522;-67
2020/12/21 12:49:32;;;;;;;13.32;8.90;;;;;;;;;;4189235;34;20507;-68
2020/12/21 12:51:58;;;;;;;11.35;8.35;;;;;;;;;;4189266;34;20114;-69
2020/12/21 12:54:24;;;;;;;10.45;8.95;;;;;;;;;;4190781;34;20606;-69
2020/12/21 12:56:50;;;;;;;10.95;8.45;;;;;;;;;;4191797;34;20416;-67
2020/12/21 12:59:16;;;;;;;12.43;8.88;;;;;;;;;;4204304;34;20121;-68
2020/12/21 13:01:42;;;;;;;11.20;8.30;;;;;;;;;;4191324;34;20145;-68
2020/12/21 13:04:08;;;;;;;13.95;8.45;;;;;;;;;;4204267;34;20094;-67
2020/12/21 13:06:34;;;;;;;11.95;8.13;;;;;;;;;;4204663;34;20133;-67
2020/12/21 13:09:00;;;;;;;9.02;7.93;;;;;;;;;;4204291;34;20117;-75
2020/12/21 13:11:26;;;;;;;12.25;8.48;;;;;;;;;;4206492;34;20133;-67
2020/12/21 13:13:52;;;;;;;10.00;7.75;;;;;;;;;;4209091;34;20208;-68
2020/12/21 13:16:19;;;;;;;9.63;8.20;;;;;;;;;;4196229;34;20123;-66
2020/12/21 13:18:45;;;;;;;11.93;9.23;;;;;;;;;;4208855;34;20115;-67
2020/12/21 13:21:18;;;;;;;11.02;8.85;;;;;;;;;;4208751;34;20141;-67
2020/12/21 13:23:44;;;;;;;11.30;8.50;;;;;;;;;;4208984;34;20178;-66
2020/12/21 13:26:19;;;;;;;10.55;9.43;;;;;;;;;;4208663;34;20199;-66
2020/12/21 13:28:48;;;;;;;11.80;9.67;;;;;;;;;;4195871;34;20218;-69
2020/12/21 13:31:14;;;;;;;12.80;9.80;;;;;;;;;;4193227;34;20116;-68
2020/12/21 13:33:41;;;;;;;11.05;9.75;;;;;;;;;;4194780;34;20099;-68
2020/12/21 13:36:10;;;;;;;9.73;8.73;;;;;;;;;;4194721;34;20132;-66
2020/12/21 13:38:39;;;;;;;13.48;10.30;;;;;;;;;;4195082;34;20177;-67
2020/12/21 13:41:08;;;;;;;12.23;9.57;;;;;;;;;;4194674;34;20185;-65
2020/12/21 13:43:34;;;;;;;11.77;9.60;;;;;;;;;;4194814;34;20114;-68
2020/12/21 13:46:00;;;;;;;12.35;9.98;;;;;;;;;;4181983;34;20196;-70
2020/12/21 13:48:26;;;;;;;11.27;8.93;;;;;;;;;;4194753;34;20197;-67
2020/12/21 13:50:52;;;;;;;12.32;9.23;;;;;;;;;;4194547;34;20118;-68
2020/12/21 13:53:18;;;;;;;11.55;9.35;;;;;;;;;;4194670;34;20529;-70
2020/12/21 13:55:44;;;;;;;13.35;10.05;;;;;;;;;;4191241;34;20126;-68
2020/12/21 13:58:10;;;;;;;13.35;10.25;;;;;;;;;;4194252;34;20125;-63
2020/12/21 14:00:36;;;;;;;12.85;9.85;;;;;;;;;;4182379;34;20450;-63
2020/12/21 14:03:02;;;;;;;12.50;9.75;;;;;;;;;;4193005;34;20229;-69
2020/12/21 14:05:28;;;;;;;14.82;11.32;;;;;;;;;;4193905;34;20206;-68
2020/12/21 14:07:54;;;;;;;16.73;12.02;;;;;;;;;;4194145;34;20122;-66
2020/12/21 14:10:20;;;;;;;15.25;11.00;;;;;;;;;;4180666;34;20201;-67
2020/12/21 14:12:46;;;;;;;16.65;13.27;;;;;;;;;;4193751;34;20229;-67
2020/12/21 14:15:12;;;;;;;15.90;11.35;;;;;;;;;;4193869;34;20122;-67
2020/12/21 14:17:37;;;;;;;15.82;10.63;;;;;;;;;;4193103;34;20125;-68
2020/12/21 14:20:04;;;;;;;13.68;10.27;;;;;;;;;;4194206;34;20273;-67
2020/12/21 14:22:30;;;;;;;13.40;10.35;;;;;;;;;;4192524;34;20162;-66
2020/12/21 14:24:57;;;;;;;15.52;10.85;;;;;;;;;;4190263;34;20110;-64
2020/12/21 14:27:23;;;;;;;14.07;10.18;;;;;;;;;;4191785;34;20102;-63
2020/12/21 14:29:50;;;;;;;13.77;9.90;;;;;;;;;;4191607;34;20102;-63
2020/12/21 14:32:16;;;;;;;12.90;10.05;;;;;;;;;;4190090;34;20121;-65
2020/12/21 14:34:42;;;;;;;15.25;11.00;;;;;;;;;;4191316;34;20237;-64
2020/12/21 14:37:08;;;;;;;14.25;10.85;;;;;;;;;;4188265;34;20098;-63
2020/12/21 14:39:34;;;;;;;15.30;10.35;;;;;;;;;;4178592;34;20160;-65
2020/12/21 14:42:02;;;;;;;13.77;10.98;;;;;;;;;;4192076;34;20098;-62
2020/12/21 14:44:29;;;;;;;17.58;11.35;;;;;;;;;;4191750;34;20448;-62
2020/12/21 14:46:55;;;;;;;17.00;11.38;;;;;;;;;;4191808;34;20094;-62